sensor_id;sensor_type;location;lat;lon;timestamp;pressure;altitude;pressure_sealevel;temperature;humidity
10470;BME280;5282;47.052;15.458;2023-03-03T00:00:47;97624.97;;;4.87;100.00
10470;BME280;5282;47.052;15.458;2023-03-03T00:03:19;97623.16;;;4.87;100.00
10470;BME280;5282;47.052;15.458;2023-03-03T00:05:47;97621.97;;;4.80;100.00
10470;BME280;5282;47.052;15.458;2023-03-03T00:08:15;97624.97;;;4.87;100.00
10470;BME280;5282;47.052;15.458;2023-03-03T00:10:44;97621.31;;;4.88;100.00
10470;BME280;5282;47.052;15.458;2023-03-03T00:13:15;97616.25;;;4.85;100.00
10470;BME280;5282;47.052;15.458;2023-03-03T00:15:44;97616.38;;;4.83;100.00
10470;BME280;5282;47.052;15.458;2023-03-03T00:18:20;97618.72;;;4.76;100.00
10470;BME280;5282;47.052;15.458;2023-03-03T00:20:52;97624.91;;;4.77;100.00
10470;BME280;5282;47.052;15.458;2023-03-03T00:23:27;97618.28;;;4.71;100.00
10470;BME280;5282;47.052;15.458;2023-03-03T00:25:55;97619.78;;;4.53;100.00
10470;BME280;5282;47.052;15.458;2023-03-03T00:28:25;97617.47;;;4.59;100.00
10470;BME280;5282;47.052;15.458;2023-03-03T00:30:54;97609.66;;;4.68;100.00
10470;BME280;5282;47.052;15.458;2023-03-03T00:33:27;97612.31;;;4.68;100.00
10470;BME280;5282;47.052;15.458;2023-03-03T00:36:09;97610.00;;;4.53;100.00
10470;BME280;5282;47.052;15.458;2023-03-03T00:38:47;97610.44;;;4.58;100.00
10470;BME280;5282;47.052;15.458;2023-03-03T00:41:19;97615.31;;;4.53;100.00
10470;BME280;5282;47.052;15.458;2023-03-03T00:43:48;97602.00;;;4.53;100.00
10470;BME280;5282;47.052;15.458;2023-03-03T00:46:17;97598.94;;;4.58;100.00
10470;BME280;5282;47.052;15.458;2023-03-03T00:48:48;97597.25;;;4.57;100.00
10470;BME280;5282;47.052;15.458;2023-03-03T00:51:26;97597.81;;;4.60;100.00
10470;BME280;5282;47.052;15.458;2023-03-03T00:53:55;97597.25;;;4.57;100.00
10470;BME280;5282;47.052;15.458;2023-03-03T00:56:24;97592.28;;;4.52;100.00
10470;BME280;5282;47.052;15.458;2023-03-03T00:58:53;97592.16;;;4.54;100.00
10470;BME280;5282;47.052;15.458;2023-03-03T01:01:21;97590.88;;;4.37;100.00
10470;BME280;5282;47.052;15.458;2023-03-03T01:03:54;97587.09;;;4.18;100.00
10470;BME280;5282;47.052;15.458;2023-03-03T01:06:24;97583.75;;;4.26;100.00
10470;BME280;5282;47.052;15.458;2023-03-03T01:08:50;97583.38;;;4.42;100.00
10470;BME280;5282;47.052;15.458;2023-03-03T01:11:21;97579.47;;;4.46;100.00
10470;BME280;5282;47.052;15.458;2023-03-03T01:13:50;97574.25;;;4.44;100.00
10470;BME280;5282;47.052;15.458;2023-03-03T01:16:18;97575.09;;;4.45;100.00
10470;BME280;5282;47.052;15.458;2023-03-03T01:18:46;97576.97;;;4.33;100.00
10470;BME280;5282;47.052;15.458;2023-03-03T01:21:15;97576.25;;;4.31;100.00
10470;BME280;5282;47.052;15.458;2023-03-03T01:23:42;97578.09;;;4.30;100.00
10470;BME280;5282;47.052;15.458;2023-03-03T01:26:09;97573.44;;;4.32;100.00
10470;BME280;5282;47.052;15.458;2023-03-03T01:28:36;97571.50;;;4.35;100.00
10470;BME280;5282;47.052;15.458;2023-03-03T01:31:04;97577.75;;;4.24;100.00
10470;BME280;5282;47.052;15.458;2023-03-03T01:33:32;97572.03;;;4.28;100.00
10470;BME280;5282;47.052;15.458;2023-03-03T01:36:00;97567.16;;;4.33;100.00
10470;BME280;5282;47.052;15.458;2023-03-03T01:38:29;97562.34;;;4.27;100.00
10470;BME280;5282;47.052;15.458;2023-03-03T01:40:58;97560.06;;;4.23;100.00
10470;BME280;5282;47.052;15.458;2023-03-03T01:43:26;97563.06;;;4.29;100.00
10470;BME280;5282;47.052;15.458;2023-03-03T01:49:02;97561.13;;;4.20;100.00
10470;BME280;5282;47.052;15.458;2023-03-03T01:51:34;97566.13;;;4.25;100.00
10470;BME280;5282;47.052;15.458;2023-03-03T01:54:06;97559.13;;;4.12;100.00
10470;BME280;5282;47.052;15.458;2023-03-03T01:56:36;97558.47;;;4.20;100.00
10470;BME280;5282;47.052;15.458;2023-03-03T01:59:08;97555.44;;;4.25;100.00
10470;BME280;5282;47.052;15.458;2023-03-03T02:01:40;97552.44;;;4.18;100.00
10470;BME280;5282;47.052;15.458;2023-03-03T02:04:08;97543.72;;;4.16;100.00
10470;BME280;5282;47.052;15.458;2023-03-03T02:06:42;97547.50;;;4.13;100.00
10470;BME280;5282;47.052;15.458;2023-03-03T02:09:16;97550.03;;;4.15;100.00
10470;BME280;5282;47.052;15.458;2023-03-03T02:11:50;97548.56;;;4.11;100.00
10470;BME280;5282;47.052;15.458;2023-03-03T02:14:18;97553.56;;;4.04;100.00
10470;BME280;5282;47.052;15.458;2023-03-03T02:16:46;97552.47;;;4.07;100.00
10470;BME280;5282;47.052;15.458;2023-03-03T02:19:20;97553.91;;;4.11;100.00
10470;BME280;5282;47.052;15.458;2023-03-03T02:21:51;97547.00;;;4.08;100.00
10470;BME280;5282;47.052;15.458;2023-03-03T02:24:25;97548.38;;;4.03;100.00
10470;BME280;5282;47.052;15.458;2023-03-03T02:26:54;97541.97;;;3.94;100.00
10470;BME280;5282;47.052;15.458;2023-03-03T02:29:22;97546.19;;;4.08;100.00
10470;BME280;5282;47.052;15.458;2023-03-03T02:31:49;97543.63;;;4.06;100.00
10470;BME280;5282;47.052;15.458;2023-03-03T02:34:16;97528.88;;;4.02;100.00
10470;BME280;5282;47.052;15.458;2023-03-03T02:36:46;97543.19;;;4.01;100.00
10470;BME280;5282;47.052;15.458;2023-03-03T02:39:15;97541.34;;;4.01;100.00
10470;BME280;5282;47.052;15.458;2023-03-03T02:41:46;97548.78;;;3.86;100.00
10470;BME280;5282;47.052;15.458;2023-03-03T02:44:21;97545.38;;;3.84;100.00
10470;BME280;5282;47.052;15.458;2023-03-03T02:46:50;97541.13;;;3.93;100.00
10470;BME280;5282;47.052;15.458;2023-03-03T02:49:21;97541.13;;;3.93;100.00
10470;BME280;5282;47.052;15.458;2023-03-03T02:51:49;97529.38;;;3.96;100.00
10470;BME280;5282;47.052;15.458;2023-03-03T02:54:18;97529.50;;;3.94;100.00
10470;BME280;5282;47.052;15.458;2023-03-03T02:56:46;97517.38;;;4.01;100.00
10470;BME280;5282;47.052;15.458;2023-03-03T02:59:13;97520.78;;;3.92;100.00
10470;BME280;5282;47.052;15.458;2023-03-03T03:01:43;97520.19;;;3.89;100.00
10470;BME280;5282;47.052;15.458;2023-03-03T03:04:13;97523.50;;;3.81;100.00
10470;BME280;5282;47.052;15.458;2023-03-03T03:06:41;97523.88;;;3.76;100.00
10470;BME280;5282;47.052;15.458;2023-03-03T03:09:12;97525.19;;;3.82;100.00
10470;BME280;5282;47.052;15.458;2023-03-03T03:11:40;97528.81;;;3.81;100.00
10470;BME280;5282;47.052;15.458;2023-03-03T03:14:09;97521.59;;;3.72;100.00
10470;BME280;5282;47.052;15.458;2023-03-03T03:16:36;97520.63;;;3.73;100.00
10470;BME280;5282;47.052;15.458;2023-03-03T03:19:05;97511.75;;;3.72;100.00
10470;BME280;5282;47.052;15.458;2023-03-03T03:21:32;97519.38;;;3.77;100.00
10470;BME280;5282;47.052;15.458;2023-03-03T03:24:00;97513.59;;;3.72;100.00
10470;BME280;5282;47.052;15.458;2023-03-03T03:26:27;97513.03;;;3.57;100.00
10470;BME280;5282;47.052;15.458;2023-03-03T03:28:55;97519.44;;;3.31;100.00
10470;BME280;5282;47.052;15.458;2023-03-03T03:31:24;97522.34;;;3.17;100.00
10470;BME280;5282;47.052;15.458;2023-03-03T03:33:51;97517.66;;;3.20;100.00
10470;BME280;5282;47.052;15.458;2023-03-03T03:36:22;97518.50;;;3.21;100.00
10470;BME280;5282;47.052;15.458;2023-03-03T03:38:52;97509.91;;;3.29;100.00
10470;BME280;5282;47.052;15.458;2023-03-03T03:41:23;97506.38;;;3.39;100.00
10470;BME280;5282;47.052;15.458;2023-03-03T03:43:51;97506.63;;;3.36;100.00
10470;BME280;5282;47.052;15.458;2023-03-03T03:46:21;97507.81;;;3.44;100.00
10470;BME280;5282;47.052;15.458;2023-03-03T03:48:49;97508.06;;;3.40;100.00
10470;BME280;5282;47.052;15.458;2023-03-03T03:51:16;97512.91;;;3.47;100.00
10470;BME280;5282;47.052;15.458;2023-03-03T03:53:44;97510.97;;;3.49;100.00
10470;BME280;5282;47.052;15.458;2023-03-03T03:56:11;97509.66;;;3.32;100.00
10470;BME280;5282;47.052;15.458;2023-03-03T03:58:40;97505.78;;;3.36;100.00
10470;BME280;5282;47.052;15.458;2023-03-03T04:01:08;97502.28;;;3.24;100.00
10470;BME280;5282;47.052;15.458;2023-03-03T04:03:38;97496.22;;;3.33;100.00
10470;BME280;5282;47.052;15.458;2023-03-03T04:06:08;97501.56;;;3.11;100.00
10470;BME280;5282;47.052;15.458;2023-03-03T04:08:45;97498.91;;;3.11;100.00
10470;BME280;5282;47.052;15.458;2023-03-03T04:11:16;97495.66;;;2.96;100.00
10470;BME280;5282;47.052;15.458;2023-03-03T04:13:44;97500.38;;;2.92;100.00
10470;BME280;5282;47.052;15.458;2023-03-03T04:16:18;97495.66;;;3.07;100.00
10470;BME280;5282;47.052;15.458;2023-03-03T04:18:49;97502.41;;;3.11;100.00
10470;BME280;5282;47.052;15.458;2023-03-03T04:21:18;97497.06;;;3.11;100.00
10470;BME280;5282;47.052;15.458;2023-03-03T04:23:50;97502.06;;;3.04;100.00
10470;BME280;5282;47.052;15.458;2023-03-03T04:26:20;97500.84;;;2.97;100.00
10470;BME280;5282;47.052;15.458;2023-03-03T04:28:53;97509.16;;;2.81;100.00
10470;BME280;5282;47.052;15.458;2023-03-03T04:31:24;97510.88;;;2.82;100.00
10470;BME280;5282;47.052;15.458;2023-03-03T04:33:51;97506.75;;;2.78;100.00
10470;BME280;5282;47.052;15.458;2023-03-03T04:36:19;97502.06;;;2.82;100.00
10470;BME280;5282;47.052;15.458;2023-03-03T04:38:46;97500.25;;;2.93;100.00
10470;BME280;5282;47.052;15.458;2023-03-03T04:41:16;97505.94;;;3.00;100.00
10470;BME280;5282;47.052;15.458;2023-03-03T04:43:43;97499.13;;;2.96;100.00
10470;BME280;5282;47.052;15.458;2023-03-03T04:46:10;97509.53;;;2.76;100.00
10470;BME280;5282;47.052;15.458;2023-03-03T04:48:37;97502.28;;;2.67;100.00
10470;BME280;5282;47.052;15.458;2023-03-03T04:51:05;97516.53;;;2.77;100.00
10470;BME280;5282;47.052;15.458;2023-03-03T04:53:35;97509.31;;;2.91;100.00
10470;BME280;5282;47.052;15.458;2023-03-03T04:56:03;97504.34;;;2.86;100.00
10470;BME280;5282;47.052;15.458;2023-03-03T04:58:32;97508.56;;;2.89;100.00
10470;BME280;5282;47.052;15.458;2023-03-03T05:01:01;97511.72;;;2.94;100.00
10470;BME280;5282;47.052;15.458;2023-03-03T05:03:28;97506.75;;;2.89;100.00
10470;BME280;5282;47.052;15.458;2023-03-03T05:05:55;97512.06;;;3.01;100.00
10470;BME280;5282;47.052;15.458;2023-03-03T05:08:23;97517.66;;;2.98;100.00
10470;BME280;5282;47.052;15.458;2023-03-03T05:10:51;97512.94;;;3.01;100.00
10470;BME280;5282;47.052;15.458;2023-03-03T05:13:18;97524.78;;;3.08;100.00
10470;BME280;5282;47.052;15.458;2023-03-03T05:15:50;97514.75;;;3.12;100.00
10470;BME280;5282;47.052;15.458;2023-03-03T05:18:18;97512.44;;;3.07;100.00
10470;BME280;5282;47.052;15.458;2023-03-03T05:20:45;97522.84;;;3.11;100.00
10470;BME280;5282;47.052;15.458;2023-03-03T05:23:12;97516.44;;;3.13;100.00
10470;BME280;5282;47.052;15.458;2023-03-03T05:25:39;97516.56;;;3.12;100.00
10470;BME280;5282;47.052;15.458;2023-03-03T05:28:08;97521.03;;;3.11;100.00
10470;BME280;5282;47.052;15.458;2023-03-03T05:30:35;97518.13;;;3.14;100.00
10470;BME280;5282;47.052;15.458;2023-03-03T05:33:05;97526.97;;;3.15;100.00
10470;BME280;5282;47.052;15.458;2023-03-03T05:35:34;97525.00;;;3.17;100.00
10470;BME280;5282;47.052;15.458;2023-03-03T05:38:01;97527.66;;;3.17;100.00
10470;BME280;5282;47.052;15.458;2023-03-03T05:40:28;97541.34;;;3.12;100.00
10470;BME280;5282;47.052;15.458;2023-03-03T05:42:55;97536.66;;;3.16;100.00
10470;BME280;5282;47.052;15.458;2023-03-03T05:45:24;97538.31;;;3.17;100.00
10470;BME280;5282;47.052;15.458;2023-03-03T05:47:51;97541.47;;;3.22;100.00
10470;BME280;5282;47.052;15.458;2023-03-03T05:50:21;97539.53;;;3.24;100.00
10470;BME280;5282;47.052;15.458;2023-03-03T05:52:49;97548.00;;;3.29;100.00
10470;BME280;5282;47.052;15.458;2023-03-03T05:55:18;97538.22;;;3.30;100.00
10470;BME280;5282;47.052;15.458;2023-03-03T05:57:46;97548.84;;;3.30;100.00
10470;BME280;5282;47.052;15.458;2023-03-03T06:00:15;97543.16;;;3.23;100.00
10470;BME280;5282;47.052;15.458;2023-03-03T06:02:42;97544.13;;;3.11;100.00
10470;BME280;5282;47.052;15.458;2023-03-03T06:05:09;97551.63;;;3.05;100.00
10470;BME280;5282;47.052;15.458;2023-03-03T06:07:39;97542.31;;;3.11;100.00
10470;BME280;5282;47.052;15.458;2023-03-03T06:10:07;97545.47;;;3.28;100.00
10470;BME280;5282;47.052;15.458;2023-03-03T06:12:35;97553.09;;;3.32;100.00
10470;BME280;5282;47.052;15.458;2023-03-03T06:15:05;97554.03;;;3.43;100.00
10470;BME280;5282;47.052;15.458;2023-03-03T06:17:32;97548.72;;;3.43;100.00
10470;BME280;5282;47.052;15.458;2023-03-03T06:20:01;97557.66;;;3.42;100.00
10470;BME280;5282;47.052;15.458;2023-03-03T06:22:29;97560.09;;;3.45;100.00
10470;BME280;5282;47.052;15.458;2023-03-03T06:24:57;97556.84;;;3.52;100.00
10470;BME280;5282;47.052;15.458;2023-03-03T06:27:24;97558.53;;;3.53;100.00
10470;BME280;5282;47.052;15.458;2023-03-03T06:29:51;97563.34;;;3.60;100.00
10470;BME280;5282;47.052;15.458;2023-03-03T06:32:18;97570.25;;;3.62;100.00
10470;BME280;5282;47.052;15.458;2023-03-03T06:34:45;97572.94;;;3.62;100.00
10470;BME280;5282;47.052;15.458;2023-03-03T06:37:12;97576.19;;;3.66;100.00
10470;BME280;5282;47.052;15.458;2023-03-03T06:39:39;97582.34;;;3.66;100.00
10470;BME280;5282;47.052;15.458;2023-03-03T06:42:07;97584.53;;;3.73;100.00
10470;BME280;5282;47.052;15.458;2023-03-03T06:44:35;97584.66;;;3.60;100.00
10470;BME280;5282;47.052;15.458;2023-03-03T06:47:02;97593.34;;;3.62;100.00
10470;BME280;5282;47.052;15.458;2023-03-03T06:49:30;97589.13;;;3.70;100.00
10470;BME280;5282;47.052;15.458;2023-03-03T06:51:58;97592.00;;;3.79;100.00
10470;BME280;5282;47.052;15.458;2023-03-03T06:54:28;97591.41;;;3.86;100.00
10470;BME280;5282;47.052;15.458;2023-03-03T06:57:00;97593.19;;;3.86;100.00
10470;BME280;5282;47.052;15.458;2023-03-03T06:59:33;97602.19;;;3.85;100.00
10470;BME280;5282;47.052;15.458;2023-03-03T07:02:00;97603.28;;;3.71;100.00
10470;BME280;5282;47.052;15.458;2023-03-03T07:04:29;97598.06;;;3.81;100.00
10470;BME280;5282;47.052;15.458;2023-03-03T07:06:59;97605.44;;;3.89;100.00
10470;BME280;5282;47.052;15.458;2023-03-03T07:09:31;97615.50;;;3.85;100.00
10470;BME280;5282;47.052;15.458;2023-03-03T07:12:01;97614.16;;;3.91;100.00
10470;BME280;5282;47.052;15.458;2023-03-03T07:14:35;97622.38;;;3.99;100.00
10470;BME280;5282;47.052;15.458;2023-03-03T07:17:13;97621.75;;;4.07;100.00
10470;BME280;5282;47.052;15.458;2023-03-03T07:19:42;97624.16;;;4.10;100.00
10470;BME280;5282;47.052;15.458;2023-03-03T07:22:14;97631.66;;;4.16;100.00
10470;BME280;5282;47.052;15.458;2023-03-03T07:24:43;97634.09;;;4.19;100.00
10470;BME280;5282;47.052;15.458;2023-03-03T07:27:13;97629.47;;;4.21;100.00
10470;BME280;5282;47.052;15.458;2023-03-03T07:29:45;97628.03;;;4.17;100.00
10470;BME280;5282;47.052;15.458;2023-03-03T07:32:23;97629.44;;;4.32;100.00
10470;BME280;5282;47.052;15.458;2023-03-03T07:34:53;97632.34;;;4.41;100.00
10470;BME280;5282;47.052;15.458;2023-03-03T07:37:28;97630.25;;;4.44;100.00
10470;BME280;5282;47.052;15.458;2023-03-03T07:39:56;97631.13;;;4.33;100.00
10470;BME280;5282;47.052;15.458;2023-03-03T07:42:25;97631.75;;;4.58;100.00
10470;BME280;5282;47.052;15.458;2023-03-03T07:44:57;97623.75;;;4.58;100.00
10470;BME280;5282;47.052;15.458;2023-03-03T07:47:26;97619.16;;;4.60;100.00
10470;BME280;5282;47.052;15.458;2023-03-03T07:49:54;97617.38;;;4.50;100.00
10470;BME280;5282;47.052;15.458;2023-03-03T07:52:27;97625.31;;;4.40;100.00
10470;BME280;5282;47.052;15.458;2023-03-03T07:54:56;97618.91;;;4.63;100.00
10470;BME280;5282;47.052;15.458;2023-03-03T07:57:25;97617.59;;;4.79;100.00
10470;BME280;5282;47.052;15.458;2023-03-03T07:59:58;97613.47;;;4.86;100.00
10470;BME280;5282;47.052;15.458;2023-03-03T08:02:39;97617.03;;;4.97;100.00
10470;BME280;5282;47.052;15.458;2023-03-03T08:05:28;97618.84;;;4.96;100.00
10470;BME280;5282;47.052;15.458;2023-03-03T08:08:12;97619.97;;;4.93;100.00
10470;BME280;5282;47.052;15.458;2023-03-03T08:10:46;97619.06;;;5.04;100.00
10470;BME280;5282;47.052;15.458;2023-03-03T08:13:18;97625.47;;;5.02;100.00
10470;BME280;5282;47.052;15.458;2023-03-03T08:15:49;97624.19;;;5.17;100.00
10470;BME280;5282;47.052;15.458;2023-03-03T08:18:21;97625.22;;;5.26;100.00
10470;BME280;5282;47.052;15.458;2023-03-03T08:20:51;97620.94;;;5.14;100.00
10470;BME280;5282;47.052;15.458;2023-03-03T08:23:19;97623.53;;;5.04;100.00
10470;BME280;5282;47.052;15.458;2023-03-03T08:25:50;97625.09;;;5.28;100.00
10470;BME280;5282;47.052;15.458;2023-03-03T08:28:18;97623.38;;;5.48;100.00
10470;BME280;5282;47.052;15.458;2023-03-03T08:30:47;97621.53;;;5.48;100.00
10470;BME280;5282;47.052;15.458;2023-03-03T08:33:15;97617.44;;;5.75;100.00
10470;BME280;5282;47.052;15.458;2023-03-03T08:35:43;97615.53;;;5.97;100.00
10470;BME280;5282;47.052;15.458;2023-03-03T08:38:11;97623.44;;;5.67;100.00
10470;BME280;5282;47.052;15.458;2023-03-03T08:40:38;97625.28;;;5.67;100.00
10470;BME280;5282;47.052;15.458;2023-03-03T08:43:05;97632.06;;;6.02;100.00
10470;BME280;5282;47.052;15.458;2023-03-03T08:45:33;97634.59;;;5.82;100.00
10470;BME280;5282;47.052;15.458;2023-03-03T08:48:02;97635.00;;;5.78;100.00
10470;BME280;5282;47.052;15.458;2023-03-03T08:50:29;97633.03;;;6.01;100.00
10470;BME280;5282;47.052;15.458;2023-03-03T08:52:56;97640.28;;;5.58;100.00
10470;BME280;5282;47.052;15.458;2023-03-03T08:55:24;97638.88;;;5.95;100.00
10470;BME280;5282;47.052;15.458;2023-03-03T08:57:51;97628.66;;;6.00;100.00
10470;BME280;5282;47.052;15.458;2023-03-03T09:00:19;97638.88;;;6.26;100.00
10470;BME280;5282;47.052;15.458;2023-03-03T09:02:47;97630.88;;;6.55;100.00
10470;BME280;5282;47.052;15.458;2023-03-03T09:05:16;97630.31;;;6.91;100.00
10470;BME280;5282;47.052;15.458;2023-03-03T09:07:44;97629.28;;;7.12;100.00
10470;BME280;5282;47.052;15.458;2023-03-03T09:10:13;97633.22;;;7.27;100.00
10470;BME280;5282;47.052;15.458;2023-03-03T09:12:42;97628.75;;;7.08;100.00
10470;BME280;5282;47.052;15.458;2023-03-03T09:15:20;97622.72;;;7.53;100.00
10470;BME280;5282;47.052;15.458;2023-03-03T09:17:52;97616.63;;;7.61;100.00
10470;BME280;5282;47.052;15.458;2023-03-03T09:20:36;97616.94;;;7.86;100.00
10470;BME280;5282;47.052;15.458;2023-03-03T09:23:29;97625.28;;;8.11;100.00
10470;BME280;5282;47.052;15.458;2023-03-03T09:26:14;97615.56;;;8.10;100.00
10470;BME280;5282;47.052;15.458;2023-03-03T09:28:44;97622.09;;;8.25;100.00
10470;BME280;5282;47.052;15.458;2023-03-03T09:31:21;97617.59;;;8.44;100.00
10470;BME280;5282;47.052;15.458;2023-03-03T09:33:50;97625.31;;;8.47;100.00
10470;BME280;5282;47.052;15.458;2023-03-03T09:36:23;97611.41;;;8.61;100.00
10470;BME280;5282;47.052;15.458;2023-03-03T09:38:51;97622.56;;;8.67;100.00
10470;BME280;5282;47.052;15.458;2023-03-03T09:41:53;97623.84;;;8.99;100.00
10470;BME280;5282;47.052;15.458;2023-03-03T09:47:32;97627.53;;;8.79;100.00
10470;BME280;5282;47.052;15.458;2023-03-03T09:50:09;97630.09;;;9.25;100.00
10470;BME280;5282;47.052;15.458;2023-03-03T09:52:46;97627.81;;;9.65;100.00
10470;BME280;5282;47.052;15.458;2023-03-03T09:55:34;97631.44;;;9.82;100.00
10470;BME280;5282;47.052;15.458;2023-03-03T09:58:22;97626.56;;;9.86;100.00
10470;BME280;5282;47.052;15.458;2023-03-03T10:01:01;97630.59;;;10.25;100.00
10470;BME280;5282;47.052;15.458;2023-03-03T10:03:59;97626.28;;;9.97;100.00
10470;BME280;5282;47.052;15.458;2023-03-03T10:06:32;97621.34;;;9.84;100.00
10470;BME280;5282;47.052;15.458;2023-03-03T10:09:29;97620.34;;;9.85;100.00
10470;BME280;5282;47.052;15.458;2023-03-03T10:12:04;97619.09;;;9.71;100.00
10470;BME280;5282;47.052;15.458;2023-03-03T10:17:46;97623.44;;;10.07;100.00
10470;BME280;5282;47.052;15.458;2023-03-03T10:20:43;97621.25;;;10.02;100.00
10470;BME280;5282;47.052;15.458;2023-03-03T10:23:18;97622.75;;;9.97;100.00
10470;BME280;5282;47.052;15.458;2023-03-03T10:26:01;97616.06;;;10.09;100.00
10470;BME280;5282;47.052;15.458;2023-03-03T10:28:56;97618.78;;;10.85;100.00
10470;BME280;5282;47.052;15.458;2023-03-03T10:31:37;97614.94;;;11.04;100.00
10470;BME280;5282;47.052;15.458;2023-03-03T10:34:22;97608.00;;;11.43;96.96
10470;BME280;5282;47.052;15.458;2023-03-03T10:37:01;97609.25;;;11.80;95.57
10470;BME280;5282;47.052;15.458;2023-03-03T10:39:51;97611.09;;;11.80;94.09
10470;BME280;5282;47.052;15.458;2023-03-03T10:42:35;97609.09;;;11.73;85.98
10470;BME280;5282;47.052;15.458;2023-03-03T10:45:37;97605.06;;;11.78;91.06
10470;BME280;5282;47.052;15.458;2023-03-03T10:48:22;97593.94;;;12.21;85.41
10470;BME280;5282;47.052;15.458;2023-03-03T10:51:01;97594.91;;;12.28;83.26
10470;BME280;5282;47.052;15.458;2023-03-03T10:53:38;97599.63;;;11.86;83.18
10470;BME280;5282;47.052;15.458;2023-03-03T10:56:16;97594.38;;;11.93;87.22
10470;BME280;5282;47.052;15.458;2023-03-03T10:59:14;97595.25;;;12.25;78.92
10470;BME280;5282;47.052;15.458;2023-03-03T11:01:48;97587.28;;;12.63;71.62
10470;BME280;5282;47.052;15.458;2023-03-03T11:04:27;97582.13;;;13.15;69.20
10470;BME280;5282;47.052;15.458;2023-03-03T11:07:05;97587.84;;;12.96;65.62
10470;BME280;5282;47.052;15.458;2023-03-03T11:12:45;97585.59;;;11.91;75.32
10470;BME280;5282;47.052;15.458;2023-03-03T11:15:31;97578.50;;;12.61;76.40
10470;BME280;5282;47.052;15.458;2023-03-03T11:18:12;97575.19;;;12.74;69.45
10470;BME280;5282;47.052;15.458;2023-03-03T11:20:46;97577.47;;;12.85;66.44
10470;BME280;5282;47.052;15.458;2023-03-03T11:23:41;97569.63;;;12.52;67.97
10470;BME280;5282;47.052;15.458;2023-03-03T11:26:23;97572.50;;;12.74;69.90
10470;BME280;5282;47.052;15.458;2023-03-03T11:29:01;97567.91;;;13.21;65.12
10470;BME280;5282;47.052;15.458;2023-03-03T11:31:37;97568.63;;;13.68;62.19
10470;BME280;5282;47.052;15.458;2023-03-03T11:34:17;97561.81;;;13.57;58.71
10470;BME280;5282;47.052;15.458;2023-03-03T11:36:54;97567.78;;;13.14;59.72
10470;BME280;5282;47.052;15.458;2023-03-03T11:39:24;97560.03;;;13.79;68.91
10470;BME280;5282;47.052;15.458;2023-03-03T11:42:01;97555.75;;;14.22;60.46
10470;BME280;5282;47.052;15.458;2023-03-03T11:44:34;97549.28;;;14.01;59.89
10470;BME280;5282;47.052;15.458;2023-03-03T11:47:13;97553.88;;;13.85;59.09
10470;BME280;5282;47.052;15.458;2023-03-03T11:49:47;97552.44;;;14.04;53.34
10470;BME280;5282;47.052;15.458;2023-03-03T11:52:26;97554.09;;;13.31;54.05
10470;BME280;5282;47.052;15.458;2023-03-03T11:55:01;97549.16;;;12.81;57.04
10470;BME280;5282;47.052;15.458;2023-03-03T11:57:35;97545.97;;;12.54;60.63
10470;BME280;5282;47.052;15.458;2023-03-03T12:00:16;97551.28;;;12.71;58.90
10470;BME280;5282;47.052;15.458;2023-03-03T12:03:07;97539.00;;;12.83;58.67
10470;BME280;5282;47.052;15.458;2023-03-03T12:05:53;97535.94;;;12.16;62.66
10470;BME280;5282;47.052;15.458;2023-03-03T12:08:56;97540.38;;;11.61;71.85
10470;BME280;5282;47.052;15.458;2023-03-03T12:11:29;97542.47;;;11.26;78.44
10470;BME280;5282;47.052;15.458;2023-03-03T12:14:02;97538.03;;;11.50;84.16
10470;BME280;5282;47.052;15.458;2023-03-03T12:16:40;97541.16;;;11.30;79.07
10470;BME280;5282;47.052;15.458;2023-03-03T12:19:27;97541.38;;;10.79;87.47
10470;BME280;5282;47.052;15.458;2023-03-03T12:28:01;97529.91;;;11.58;79.90
10470;BME280;5282;47.052;15.458;2023-03-03T12:30:50;97531.41;;;11.69;80.38
10470;BME280;5282;47.052;15.458;2023-03-03T12:33:31;97531.31;;;11.54;81.52
10470;BME280;5282;47.052;15.458;2023-03-03T12:36:15;97527.22;;;11.66;79.89
10470;BME280;5282;47.052;15.458;2023-03-03T12:38:54;97530.94;;;11.65;77.76
10470;BME280;5282;47.052;15.458;2023-03-03T12:41:30;97525.69;;;11.64;80.32
10470;BME280;5282;47.052;15.458;2023-03-03T12:44:07;97520.63;;;11.69;76.92
10470;BME280;5282;47.052;15.458;2023-03-03T12:46:44;97512.34;;;11.70;77.95
10470;BME280;5282;47.052;15.458;2023-03-03T12:49:12;97518.84;;;11.45;83.49
10470;BME280;5282;47.052;15.458;2023-03-03T12:52:01;97514.88;;;12.12;77.63
10470;BME280;5282;47.052;15.458;2023-03-03T12:54:48;97516.78;;;12.26;69.24
10470;BME280;5282;47.052;15.458;2023-03-03T12:57:25;97510.00;;;12.77;65.43
10470;BME280;5282;47.052;15.458;2023-03-03T13:00:16;97513.69;;;12.61;63.33
10470;BME280;5282;47.052;15.458;2023-03-03T13:02:54;97508.28;;;12.14;69.86
10470;BME280;5282;47.052;15.458;2023-03-03T13:05:27;97514.59;;;12.53;67.96
10470;BME280;5282;47.052;15.458;2023-03-03T13:11:04;97510.75;;;11.93;75.26
10470;BME280;5282;47.052;15.458;2023-03-03T13:13:39;97507.41;;;12.22;69.83
10470;BME280;5282;47.052;15.458;2023-03-03T13:16:11;97504.97;;;11.64;73.29
10470;BME280;5282;47.052;15.458;2023-03-03T13:18:49;97505.22;;;11.86;73.57
10470;BME280;5282;47.052;15.458;2023-03-03T13:21:23;97507.72;;;11.56;74.31
10470;BME280;5282;47.052;15.458;2023-03-03T13:24:00;97508.78;;;11.30;77.60
10470;BME280;5282;47.052;15.458;2023-03-03T13:26:34;97512.09;;;11.49;79.64
10470;BME280;5282;47.052;15.458;2023-03-03T13:29:08;97514.06;;;11.63;79.08
10470;BME280;5282;47.052;15.458;2023-03-03T13:31:44;97513.88;;;11.65;75.80
10470;BME280;5282;47.052;15.458;2023-03-03T13:34:22;97505.97;;;11.63;78.15
10470;BME280;5282;47.052;15.458;2023-03-03T13:36:54;97507.31;;;11.67;77.79
10470;BME280;5282;47.052;15.458;2023-03-03T13:39:28;97501.59;;;11.62;78.78
10470;BME280;5282;47.052;15.458;2023-03-03T13:42:00;97499.63;;;11.56;81.03
10470;BME280;5282;47.052;15.458;2023-03-03T13:44:32;97501.88;;;11.36;82.13
10470;BME280;5282;47.052;15.458;2023-03-03T13:47:08;97506.84;;;11.55;81.82
10470;BME280;5282;47.052;15.458;2023-03-03T13:49:44;97501.75;;;12.09;74.31